sensor_id;sensor_type;location;lat;lon;timestamp;P1;durP1;ratioP1;P2;durP2;ratioP2
12681;SDS011;6405;59.208;18.216;2022-11-15T00:00:58;1.53;;;1.20;;
12681;SDS011;6405;59.208;18.216;2022-11-15T00:03:25;2.37;;;1.17;;
12681;SDS011;6405;59.208;18.216;2022-11-15T00:05:52;0.93;;;0.80;;
12681;SDS011;6405;59.208;18.216;2022-11-15T00:08:20;1.30;;;1.00;;
12681;SDS011;6405;59.208;18.216;2022-11-15T00:10:59;0.90;;;0.67;;
12681;SDS011;6405;59.208;18.216;2022-11-15T00:13:26;0.60;;;0.60;;
12681;SDS011;6405;59.208;18.216;2022-11-15T00:15:53;0.60;;;0.60;;
12681;SDS011;6405;59.208;18.216;2022-11-15T00:18:22;1.50;;;0.90;;
12681;SDS011;6405;59.208;18.216;2022-11-15T00:20:48;1.27;;;0.80;;
12681;SDS011;6405;59.208;18.216;2022-11-15T00:23:15;1.20;;;0.80;;
12681;SDS011;6405;59.208;18.216;2022-11-15T00:25:41;1.33;;;0.90;;
12681;SDS011;6405;59.208;18.216;2022-11-15T00:28:07;1.27;;;1.10;;
12681;SDS011;6405;59.208;18.216;2022-11-15T00:30:32;1.47;;;0.90;;
12681;SDS011;6405;59.208;18.216;2022-11-15T00:33:03;2.47;;;0.97;;
12681;SDS011;6405;59.208;18.216;2022-11-15T00:35:33;1.00;;;0.70;;
12681;SDS011;6405;59.208;18.216;2022-11-15T00:38:00;2.30;;;1.23;;
12681;SDS011;6405;59.208;18.216;2022-11-15T00:40:28;1.43;;;0.87;;
12681;SDS011;6405;59.208;18.216;2022-11-15T00:42:56;1.37;;;1.10;;
12681;SDS011;6405;59.208;18.216;2022-11-15T00:45:22;2.23;;;1.30;;
12681;SDS011;6405;59.208;18.216;2022-11-15T00:47:49;1.57;;;1.20;;
12681;SDS011;6405;59.208;18.216;2022-11-15T00:50:15;3.30;;;1.13;;
12681;SDS011;6405;59.208;18.216;2022-11-15T00:52:42;1.37;;;0.93;;
12681;SDS011;6405;59.208;18.216;2022-11-15T00:55:18;1.20;;;1.10;;
12681;SDS011;6405;59.208;18.216;2022-11-15T00:57:45;2.30;;;1.10;;
12681;SDS011;6405;59.208;18.216;2022-11-15T01:00:12;2.10;;;1.13;;
12681;SDS011;6405;59.208;18.216;2022-11-15T01:02:38;1.20;;;1.07;;
12681;SDS011;6405;59.208;18.216;2022-11-15T01:05:05;3.00;;;1.30;;
12681;SDS011;6405;59.208;18.216;2022-11-15T01:07:32;4.80;;;1.20;;
12681;SDS011;6405;59.208;18.216;2022-11-15T01:09:58;1.03;;;0.93;;
12681;SDS011;6405;59.208;18.216;2022-11-15T01:12:25;1.10;;;1.00;;
12681;SDS011;6405;59.208;18.216;2022-11-15T01:14:50;1.30;;;1.10;;
12681;SDS011;6405;59.208;18.216;2022-11-15T01:17:17;1.80;;;1.20;;
12681;SDS011;6405;59.208;18.216;2022-11-15T01:19:44;1.43;;;1.00;;
12681;SDS011;6405;59.208;18.216;2022-11-15T01:22:11;1.40;;;1.13;;
12681;SDS011;6405;59.208;18.216;2022-11-15T01:24:37;1.10;;;1.00;;
12681;SDS011;6405;59.208;18.216;2022-11-15T01:27:03;1.53;;;1.17;;
12681;SDS011;6405;59.208;18.216;2022-11-15T01:29:29;1.83;;;1.17;;
12681;SDS011;6405;59.208;18.216;2022-11-15T01:31:55;1.40;;;1.10;;
12681;SDS011;6405;59.208;18.216;2022-11-15T01:34:22;0.97;;;0.90;;
12681;SDS011;6405;59.208;18.216;2022-11-15T01:36:47;1.10;;;0.90;;
12681;SDS011;6405;59.208;18.216;2022-11-15T01:39:13;2.10;;;1.27;;
12681;SDS011;6405;59.208;18.216;2022-11-15T01:41:42;1.77;;;1.53;;
12681;SDS011;6405;59.208;18.216;2022-11-15T01:47:16;1.50;;;1.40;;
12681;SDS011;6405;59.208;18.216;2022-11-15T01:49:50;1.50;;;1.40;;
12681;SDS011;6405;59.208;18.216;2022-11-15T01:52:26;1.83;;;1.57;;
12681;SDS011;6405;59.208;18.216;2022-11-15T01:57:42;1.40;;;1.20;;
12681;SDS011;6405;59.208;18.216;2022-11-15T02:00:10;2.37;;;1.50;;
12681;SDS011;6405;59.208;18.216;2022-11-15T02:02:38;1.30;;;1.07;;
12681;SDS011;6405;59.208;18.216;2022-11-15T02:05:07;2.63;;;1.30;;
12681;SDS011;6405;59.208;18.216;2022-11-15T02:07:34;2.67;;;1.07;;
12681;SDS011;6405;59.208;18.216;2022-11-15T02:10:06;3.00;;;1.43;;
12681;SDS011;6405;59.208;18.216;2022-11-15T02:12:35;1.23;;;1.10;;
12681;SDS011;6405;59.208;18.216;2022-11-15T02:15:03;1.43;;;1.33;;
12681;SDS011;6405;59.208;18.216;2022-11-15T02:17:57;1.50;;;1.33;;
12681;SDS011;6405;59.208;18.216;2022-11-15T02:20:35;1.87;;;1.37;;
12681;SDS011;6405;59.208;18.216;2022-11-15T02:25:37;1.47;;;1.07;;
12681;SDS011;6405;59.208;18.216;2022-11-15T02:31:06;1.00;;;0.80;;
12681;SDS011;6405;59.208;18.216;2022-11-15T02:38:52;0.70;;;0.50;;
12681;SDS011;6405;59.208;18.216;2022-11-15T02:44:07;1.23;;;0.73;;
12681;SDS011;6405;59.208;18.216;2022-11-15T02:47:01;1.33;;;0.60;;
12681;SDS011;6405;59.208;18.216;2022-11-15T02:49:51;1.00;;;0.90;;
12681;SDS011;6405;59.208;18.216;2022-11-15T02:52:23;1.10;;;0.70;;
12681;SDS011;6405;59.208;18.216;2022-11-15T02:54:53;1.60;;;0.90;;
12681;SDS011;6405;59.208;18.216;2022-11-15T02:57:44;2.00;;;1.00;;
12681;SDS011;6405;59.208;18.216;2022-11-15T03:00:18;1.40;;;1.20;;
12681;SDS011;6405;59.208;18.216;2022-11-15T03:05:19;1.20;;;1.10;;
12681;SDS011;6405;59.208;18.216;2022-11-15T03:08:04;1.23;;;1.13;;
12681;SDS011;6405;59.208;18.216;2022-11-15T03:10:41;1.67;;;1.17;;
12681;SDS011;6405;59.208;18.216;2022-11-15T03:13:13;2.13;;;1.67;;
12681;SDS011;6405;59.208;18.216;2022-11-15T03:15:51;1.60;;;1.30;;
12681;SDS011;6405;59.208;18.216;2022-11-15T03:18:29;1.70;;;1.40;;
12681;SDS011;6405;59.208;18.216;2022-11-15T03:21:04;1.77;;;1.30;;
12681;SDS011;6405;59.208;18.216;2022-11-15T03:23:32;1.50;;;1.20;;
12681;SDS011;6405;59.208;18.216;2022-11-15T03:26:00;1.97;;;1.47;;
12681;SDS011;6405;59.208;18.216;2022-11-15T03:28:34;3.07;;;1.30;;
12681;SDS011;6405;59.208;18.216;2022-11-15T03:31:24;2.00;;;1.50;;
12681;SDS011;6405;59.208;18.216;2022-11-15T03:36:45;1.87;;;1.20;;
12681;SDS011;6405;59.208;18.216;2022-11-15T03:39:14;0.90;;;0.70;;
12681;SDS011;6405;59.208;18.216;2022-11-15T03:41:47;1.00;;;0.90;;
12681;SDS011;6405;59.208;18.216;2022-11-15T03:47:11;1.63;;;1.03;;
12681;SDS011;6405;59.208;18.216;2022-11-15T03:49:44;1.13;;;1.03;;
12681;SDS011;6405;59.208;18.216;2022-11-15T03:52:19;2.60;;;0.83;;
12681;SDS011;6405;59.208;18.216;2022-11-15T03:54:52;1.30;;;0.70;;
12681;SDS011;6405;59.208;18.216;2022-11-15T03:57:21;0.90;;;0.73;;
12681;SDS011;6405;59.208;18.216;2022-11-15T03:59:47;1.97;;;0.80;;
12681;SDS011;6405;59.208;18.216;2022-11-15T04:02:13;1.53;;;0.93;;
12681;SDS011;6405;59.208;18.216;2022-11-15T04:04:39;1.03;;;0.80;;
12681;SDS011;6405;59.208;18.216;2022-11-15T04:07:05;1.30;;;1.00;;
12681;SDS011;6405;59.208;18.216;2022-11-15T04:09:31;1.10;;;1.00;;
12681;SDS011;6405;59.208;18.216;2022-11-15T04:11:57;1.00;;;0.90;;
12681;SDS011;6405;59.208;18.216;2022-11-15T04:14:22;1.57;;;0.87;;
12681;SDS011;6405;59.208;18.216;2022-11-15T04:16:49;0.80;;;0.80;;
12681;SDS011;6405;59.208;18.216;2022-11-15T04:19:16;1.00;;;0.83;;
12681;SDS011;6405;59.208;18.216;2022-11-15T04:22:00;1.20;;;1.00;;
12681;SDS011;6405;59.208;18.216;2022-11-15T04:24:44;1.47;;;1.20;;
12681;SDS011;6405;59.208;18.216;2022-11-15T04:27:10;1.00;;;0.90;;
12681;SDS011;6405;59.208;18.216;2022-11-15T04:29:37;1.40;;;1.00;;
12681;SDS011;6405;59.208;18.216;2022-11-15T04:32:04;1.03;;;0.90;;
12681;SDS011;6405;59.208;18.216;2022-11-15T04:34:31;2.40;;;1.20;;
12681;SDS011;6405;59.208;18.216;2022-11-15T04:36:58;1.73;;;1.30;;
12681;SDS011;6405;59.208;18.216;2022-11-15T04:39:41;2.30;;;1.53;;
12681;SDS011;6405;59.208;18.216;2022-11-15T04:42:08;1.60;;;1.23;;
12681;SDS011;6405;59.208;18.216;2022-11-15T04:44:35;1.23;;;1.10;;
12681;SDS011;6405;59.208;18.216;2022-11-15T04:47:03;1.63;;;1.07;;
12681;SDS011;6405;59.208;18.216;2022-11-15T04:49:30;1.87;;;1.20;;
12681;SDS011;6405;59.208;18.216;2022-11-15T04:51:55;1.13;;;1.00;;
12681;SDS011;6405;59.208;18.216;2022-11-15T04:54:22;1.27;;;1.17;;
12681;SDS011;6405;59.208;18.216;2022-11-15T04:56:48;1.30;;;0.97;;
12681;SDS011;6405;59.208;18.216;2022-11-15T04:59:14;1.23;;;1.03;;
12681;SDS011;6405;59.208;18.216;2022-11-15T05:01:39;1.27;;;1.03;;
12681;SDS011;6405;59.208;18.216;2022-11-15T05:04:05;2.10;;;1.20;;
12681;SDS011;6405;59.208;18.216;2022-11-15T05:06:45;2.87;;;1.27;;
12681;SDS011;6405;59.208;18.216;2022-11-15T05:09:17;1.50;;;1.00;;
12681;SDS011;6405;59.208;18.216;2022-11-15T05:11:45;1.90;;;1.60;;
12681;SDS011;6405;59.208;18.216;2022-11-15T05:14:13;1.50;;;1.33;;
12681;SDS011;6405;59.208;18.216;2022-11-15T05:16:40;1.37;;;1.27;;
12681;SDS011;6405;59.208;18.216;2022-11-15T05:19:08;2.60;;;1.40;;
12681;SDS011;6405;59.208;18.216;2022-11-15T05:21:34;1.70;;;1.30;;
12681;SDS011;6405;59.208;18.216;2022-11-15T05:24:02;2.20;;;1.40;;
12681;SDS011;6405;59.208;18.216;2022-11-15T05:26:29;1.47;;;1.30;;
12681;SDS011;6405;59.208;18.216;2022-11-15T05:28:56;6.47;;;2.60;;
12681;SDS011;6405;59.208;18.216;2022-11-15T05:31:24;3.37;;;1.40;;
12681;SDS011;6405;59.208;18.216;2022-11-15T05:33:52;2.83;;;1.83;;
12681;SDS011;6405;59.208;18.216;2022-11-15T05:38:58;1.83;;;1.63;;
12681;SDS011;6405;59.208;18.216;2022-11-15T05:41:34;3.10;;;1.63;;
12681;SDS011;6405;59.208;18.216;2022-11-15T05:44:11;2.20;;;1.53;;
12681;SDS011;6405;59.208;18.216;2022-11-15T05:46:40;2.97;;;1.87;;
12681;SDS011;6405;59.208;18.216;2022-11-15T05:49:10;2.27;;;1.27;;
12681;SDS011;6405;59.208;18.216;2022-11-15T05:51:41;3.53;;;1.73;;
12681;SDS011;6405;59.208;18.216;2022-11-15T05:54:11;4.93;;;1.63;;
12681;SDS011;6405;59.208;18.216;2022-11-15T05:56:39;2.60;;;1.10;;
12681;SDS011;6405;59.208;18.216;2022-11-15T05:59:06;2.60;;;1.10;;
12681;SDS011;6405;59.208;18.216;2022-11-15T06:01:33;1.30;;;1.00;;
12681;SDS011;6405;59.208;18.216;2022-11-15T06:04:01;2.37;;;0.97;;
12681;SDS011;6405;59.208;18.216;2022-11-15T06:06:28;2.93;;;1.30;;
12681;SDS011;6405;59.208;18.216;2022-11-15T06:08:54;4.60;;;1.20;;
12681;SDS011;6405;59.208;18.216;2022-11-15T06:11:21;2.17;;;1.10;;
12681;SDS011;6405;59.208;18.216;2022-11-15T06:13:47;1.60;;;1.03;;
12681;SDS011;6405;59.208;18.216;2022-11-15T06:16:12;2.43;;;1.43;;
12681;SDS011;6405;59.208;18.216;2022-11-15T06:18:38;3.37;;;2.00;;
12681;SDS011;6405;59.208;18.216;2022-11-15T06:21:06;5.10;;;1.23;;
12681;SDS011;6405;59.208;18.216;2022-11-15T06:23:35;3.20;;;1.03;;
12681;SDS011;6405;59.208;18.216;2022-11-15T06:26:02;1.90;;;0.90;;
12681;SDS011;6405;59.208;18.216;2022-11-15T06:28:29;3.30;;;0.90;;
12681;SDS011;6405;59.208;18.216;2022-11-15T06:31:03;2.50;;;0.67;;
12681;SDS011;6405;59.208;18.216;2022-11-15T06:33:34;2.90;;;0.83;;
12681;SDS011;6405;59.208;18.216;2022-11-15T06:36:04;1.40;;;0.83;;
12681;SDS011;6405;59.208;18.216;2022-11-15T06:38:33;2.27;;;0.60;;
12681;SDS011;6405;59.208;18.216;2022-11-15T06:41:01;1.80;;;0.70;;
12681;SDS011;6405;59.208;18.216;2022-11-15T06:43:27;3.33;;;0.60;;
12681;SDS011;6405;59.208;18.216;2022-11-15T06:45:54;2.07;;;0.70;;
12681;SDS011;6405;59.208;18.216;2022-11-15T06:48:21;2.43;;;0.80;;
12681;SDS011;6405;59.208;18.216;2022-11-15T06:50:53;2.97;;;0.70;;
12681;SDS011;6405;59.208;18.216;2022-11-15T06:53:22;2.13;;;0.87;;
12681;SDS011;6405;59.208;18.216;2022-11-15T06:55:49;1.53;;;0.80;;
12681;SDS011;6405;59.208;18.216;2022-11-15T06:58:15;0.37;;;0.37;;
12681;SDS011;6405;59.208;18.216;2022-11-15T07:00:44;0.60;;;0.50;;
12681;SDS011;6405;59.208;18.216;2022-11-15T07:03:11;1.10;;;0.50;;
12681;SDS011;6405;59.208;18.216;2022-11-15T07:05:36;1.67;;;0.63;;
12681;SDS011;6405;59.208;18.216;2022-11-15T07:08:04;1.57;;;0.50;;
12681;SDS011;6405;59.208;18.216;2022-11-15T07:10:31;2.03;;;0.40;;
12681;SDS011;6405;59.208;18.216;2022-11-15T07:12:56;1.27;;;0.70;;
12681;SDS011;6405;59.208;18.216;2022-11-15T07:15:25;2.70;;;0.70;;
12681;SDS011;6405;59.208;18.216;2022-11-15T07:17:51;1.50;;;0.60;;
12681;SDS011;6405;59.208;18.216;2022-11-15T07:20:19;2.33;;;0.60;;
12681;SDS011;6405;59.208;18.216;2022-11-15T07:22:44;2.30;;;0.60;;
12681;SDS011;6405;59.208;18.216;2022-11-15T07:25:11;1.50;;;0.67;;
12681;SDS011;6405;59.208;18.216;2022-11-15T07:27:37;1.90;;;0.80;;
12681;SDS011;6405;59.208;18.216;2022-11-15T07:30:03;2.03;;;0.80;;
12681;SDS011;6405;59.208;18.216;2022-11-15T07:32:30;3.73;;;0.90;;
12681;SDS011;6405;59.208;18.216;2022-11-15T07:34:56;2.37;;;0.87;;
12681;SDS011;6405;59.208;18.216;2022-11-15T07:37:22;2.77;;;0.93;;
12681;SDS011;6405;59.208;18.216;2022-11-15T07:39:49;2.10;;;0.83;;
12681;SDS011;6405;59.208;18.216;2022-11-15T07:42:16;1.53;;;0.80;;
12681;SDS011;6405;59.208;18.216;2022-11-15T07:45:17;2.47;;;0.70;;
12681;SDS011;6405;59.208;18.216;2022-11-15T07:47:46;2.57;;;0.87;;
12681;SDS011;6405;59.208;18.216;2022-11-15T07:50:13;1.83;;;0.80;;
12681;SDS011;6405;59.208;18.216;2022-11-15T07:52:39;0.83;;;0.47;;
12681;SDS011;6405;59.208;18.216;2022-11-15T07:55:07;1.60;;;0.60;;
12681;SDS011;6405;59.208;18.216;2022-11-15T07:57:35;1.30;;;0.60;;
12681;SDS011;6405;59.208;18.216;2022-11-15T08:00:02;1.63;;;0.60;;
12681;SDS011;6405;59.208;18.216;2022-11-15T08:02:30;2.53;;;0.97;;
12681;SDS011;6405;59.208;18.216;2022-11-15T08:04:56;2.97;;;0.80;;
12681;SDS011;6405;59.208;18.216;2022-11-15T08:07:22;2.13;;;0.80;;
12681;SDS011;6405;59.208;18.216;2022-11-15T08:09:49;2.30;;;0.90;;
12681;SDS011;6405;59.208;18.216;2022-11-15T08:12:15;1.50;;;0.57;;
12681;SDS011;6405;59.208;18.216;2022-11-15T08:14:41;3.37;;;0.80;;
12681;SDS011;6405;59.208;18.216;2022-11-15T08:17:07;2.67;;;0.93;;
12681;SDS011;6405;59.208;18.216;2022-11-15T08:19:34;3.30;;;0.70;;
12681;SDS011;6405;59.208;18.216;2022-11-15T08:21:59;1.53;;;1.10;;
12681;SDS011;6405;59.208;18.216;2022-11-15T08:24:26;3.97;;;1.00;;
12681;SDS011;6405;59.208;18.216;2022-11-15T08:26:53;1.57;;;0.80;;
12681;SDS011;6405;59.208;18.216;2022-11-15T08:29:19;2.20;;;1.00;;
12681;SDS011;6405;59.208;18.216;2022-11-15T08:31:45;3.07;;;0.93;;
12681;SDS011;6405;59.208;18.216;2022-11-15T08:34:12;3.83;;;1.27;;
12681;SDS011;6405;59.208;18.216;2022-11-15T08:36:39;3.67;;;1.07;;
12681;SDS011;6405;59.208;18.216;2022-11-15T08:39:05;2.50;;;1.03;;
12681;SDS011;6405;59.208;18.216;2022-11-15T08:41:34;2.07;;;0.90;;
12681;SDS011;6405;59.208;18.216;2022-11-15T08:44:02;2.03;;;1.07;;
12681;SDS011;6405;59.208;18.216;2022-11-15T08:46:28;2.67;;;0.90;;
12681;SDS011;6405;59.208;18.216;2022-11-15T08:48:54;1.57;;;1.03;;
12681;SDS011;6405;59.208;18.216;2022-11-15T08:51:21;2.23;;;0.90;;
12681;SDS011;6405;59.208;18.216;2022-11-15T08:53:46;1.97;;;1.10;;
12681;SDS011;6405;59.208;18.216;2022-11-15T08:56:13;1.70;;;0.83;;
12681;SDS011;6405;59.208;18.216;2022-11-15T08:58:40;1.73;;;1.00;;
12681;SDS011;6405;59.208;18.216;2022-11-15T09:01:13;2.53;;;0.83;;
12681;SDS011;6405;59.208;18.216;2022-11-15T09:03:42;1.20;;;0.70;;
12681;SDS011;6405;59.208;18.216;2022-11-15T09:06:08;1.67;;;0.80;;
12681;SDS011;6405;59.208;18.216;2022-11-15T09:08:35;1.37;;;0.70;;
12681;SDS011;6405;59.208;18.216;2022-11-15T09:11:03;2.40;;;1.10;;
12681;SDS011;6405;59.208;18.216;2022-11-15T09:13:30;1.97;;;0.70;;
12681;SDS011;6405;59.208;18.216;2022-11-15T09:16:02;2.90;;;0.60;;
12681;SDS011;6405;59.208;18.216;2022-11-15T09:18:30;3.47;;;0.90;;
12681;SDS011;6405;59.208;18.216;2022-11-15T09:20:57;2.37;;;0.60;;
12681;SDS011;6405;59.208;18.216;2022-11-15T09:23:25;5.83;;;0.83;;
12681;SDS011;6405;59.208;18.216;2022-11-15T09:25:57;1.47;;;0.60;;
12681;SDS011;6405;59.208;18.216;2022-11-15T09:28:25;0.60;;;0.50;;
12681;SDS011;6405;59.208;18.216;2022-11-15T09:30:56;1.03;;;0.57;;
12681;SDS011;6405;59.208;18.216;2022-11-15T09:33:24;0.87;;;0.50;;
12681;SDS011;6405;59.208;18.216;2022-11-15T09:35:51;2.83;;;0.60;;
12681;SDS011;6405;59.208;18.216;2022-11-15T09:38:18;1.50;;;0.63;;
12681;SDS011;6405;59.208;18.216;2022-11-15T09:40:48;0.47;;;0.40;;
12681;SDS011;6405;59.208;18.216;2022-11-15T09:43:30;1.50;;;0.70;;
12681;SDS011;6405;59.208;18.216;2022-11-15T09:49:14;1.67;;;0.50;;
12681;SDS011;6405;59.208;18.216;2022-11-15T09:51:43;2.13;;;0.90;;
12681;SDS011;6405;59.208;18.216;2022-11-15T09:57:12;0.83;;;0.73;;
12681;SDS011;6405;59.208;18.216;2022-11-15T10:04:57;2.20;;;0.67;;
12681;SDS011;6405;59.208;18.216;2022-11-15T10:07:27;1.57;;;0.70;;
12681;SDS011;6405;59.208;18.216;2022-11-15T10:10:23;0.93;;;0.60;;
12681;SDS011;6405;59.208;18.216;2022-11-15T10:12:54;0.93;;;0.70;;
12681;SDS011;6405;59.208;18.216;2022-11-15T10:15:20;1.47;;;0.50;;
12681;SDS011;6405;59.208;18.216;2022-11-15T10:20:24;1.33;;;0.60;;
12681;SDS011;6405;59.208;18.216;2022-11-15T10:22:53;1.27;;;0.60;;
12681;SDS011;6405;59.208;18.216;2022-11-15T10:25:24;1.67;;;0.40;;
12681;SDS011;6405;59.208;18.216;2022-11-15T10:28:09;2.00;;;0.60;;
12681;SDS011;6405;59.208;18.216;2022-11-15T10:30:43;0.63;;;0.50;;
12681;SDS011;6405;59.208;18.216;2022-11-15T10:36:14;1.20;;;0.63;;
12681;SDS011;6405;59.208;18.216;2022-11-15T10:46:43;0.77;;;0.50;;
12681;SDS011;6405;59.208;18.216;2022-11-15T10:49:23;0.67;;;0.40;;
12681;SDS011;6405;59.208;18.216;2022-11-15T10:52:00;2.73;;;0.40;;
12681;SDS011;6405;59.208;18.216;2022-11-15T10:54:41;3.27;;;0.67;;
12681;SDS011;6405;59.208;18.216;2022-11-15T10:57:48;3.43;;;0.87;;
12681;SDS011;6405;59.208;18.216;2022-11-15T11:02:57;1.07;;;0.40;;
12681;SDS011;6405;59.208;18.216;2022-11-15T11:08:03;1.27;;;0.60;;
12681;SDS011;6405;59.208;18.216;2022-11-15T11:10:34;2.67;;;0.67;;
12681;SDS011;6405;59.208;18.216;2022-11-15T11:13:14;1.30;;;0.90;;
12681;SDS011;6405;59.208;18.216;2022-11-15T11:15:47;1.50;;;0.60;;
12681;SDS011;6405;59.208;18.216;2022-11-15T11:18:24;0.93;;;0.60;;
12681;SDS011;6405;59.208;18.216;2022-11-15T11:20:58;0.87;;;0.53;;
12681;SDS011;6405;59.208;18.216;2022-11-15T11:26:01;1.47;;;0.67;;
12681;SDS011;6405;59.208;18.216;2022-11-15T11:28:56;0.77;;;0.40;;
12681;SDS011;6405;59.208;18.216;2022-11-15T11:37:24;1.13;;;0.73;;
12681;SDS011;6405;59.208;18.216;2022-11-15T11:43:08;1.17;;;0.60;;
12681;SDS011;6405;59.208;18.216;2022-11-15T11:48:35;0.93;;;0.63;;
12681;SDS011;6405;59.208;18.216;2022-11-15T11:51:18;1.00;;;0.57;;
12681;SDS011;6405;59.208;18.216;2022-11-15T11:54:09;1.77;;;0.60;;
12681;SDS011;6405;59.208;18.216;2022-11-15T11:56:56;0.93;;;0.50;;
12681;SDS011;6405;59.208;18.216;2022-11-15T11:59:32;2.20;;;0.60;;
12681;SDS011;6405;59.208;18.216;2022-11-15T12:02:11;2.23;;;0.80;;
12681;SDS011;6405;59.208;18.216;2022-11-15T12:04:48;0.60;;;0.50;;
12681;SDS011;6405;59.208;18.216;2022-11-15T12:07:24;0.90;;;0.60;;
12681;SDS011;6405;59.208;18.216;2022-11-15T12:12:39;1.37;;;0.70;;
12681;SDS011;6405;59.208;18.216;2022-11-15T12:15:14;1.13;;;0.90;;
12681;SDS011;6405;59.208;18.216;2022-11-15T12:17:43;2.00;;;0.70;;
12681;SDS011;6405;59.208;18.216;2022-11-15T12:20:14;2.40;;;0.90;;
12681;SDS011;6405;59.208;18.216;2022-11-15T12:22:47;1.30;;;0.80;;
12681;SDS011;6405;59.208;18.216;2022-11-15T12:25:31;1.93;;;0.73;;
12681;SDS011;6405;59.208;18.216;2022-11-15T12:28:45;5.43;;;1.27;;
12681;SDS011;6405;59.208;18.216;2022-11-15T12:33:46;1.67;;;0.90;;
12681;SDS011;6405;59.208;18.216;2022-11-15T12:41:33;1.27;;;0.77;;
12681;SDS011;6405;59.208;18.216;2022-11-15T12:44:02;2.20;;;0.90;;
12681;SDS011;6405;59.208;18.216;2022-11-15T13:08:06;1.80;;;0.70;;
12681;SDS011;6405;59.208;18.216;2022-11-15T13:10:33;2.37;;;0.80;;
12681;SDS011;6405;59.208;18.216;2022-11-15T13:13:08;2.17;;;0.73;;
12681;SDS011;6405;59.208;18.216;2022-11-15T13:20:49;0.93;;;0.80;;
12681;SDS011;6405;59.208;18.216;2022-11-15T13:23:15;1.90;;;0.80;;
12681;SDS011;6405;59.208;18.216;2022-11-15T13:25:48;5.60;;;1.17;;
12681;SDS011;6405;59.208;18.216;2022-11-15T13:28:27;1.30;;;0.77;;
12681;SDS011;6405;59.208;18.216;2022-11-15T13:30:55;2.13;;;0.90;;
12681;SDS011;6405;59.208;18.216;2022-11-15T13:33:33;1.80;;;0.80;;
12681;SDS011;6405;59.208;18.216;2022-11-15T13:36:03;1.20;;;0.60;;
12681;SDS011;6405;59.208;18.216;2022-11-15T13:38:34;2.43;;;1.00;;
12681;SDS011;6405;59.208;18.216;2022-11-15T13:41:17;1.70;;;0.83;;
12681;SDS011;6405;59.208;18.216;2022-11-15T13:43:45;1.10;;;0.70;;
12681;SDS011;6405;59.208;18.216;2022-11-15T13:46:18;3.27;;;0.90;;
12681;SDS011;6405;59.208;18.216;2022-11-15T13:48:56;0.90;;;0.70;;
12681;SDS011;6405;59.208;18.216;2022-11-15T13:57:01;0.73;;;0.60;;
12681;SDS011;6405;59.208;18.216;2022-11-15T13:59:32;2.07;;;1.03;;
12681;SDS011;6405;59.208;18.216;2022-11-15T14:02:12;1.17;;;0.50;;
12681;SDS011;6405;59.208;18.216;2022-11-15T14:04:46;3.33;;;0.60;;
12681;SDS011;6405;59.208;18.216;2022-11-15T14:07:18;5.07;;;0.80;;
12681;SDS011;6405;59.208;18.216;2022-11-15T14:09:47;1.37;;;0.70;;
12681;SDS011;6405;59.208;18.216;2022-11-15T14:14:53;2.40;;;0.87;;
12681;SDS011;6405;59.208;18.216;2022-11-15T14:19:56;1.47;;;0.60;;
12681;SDS011;6405;59.208;18.216;2022-11-15T14:22:24;1.43;;;0.70;;
12681;SDS011;6405;59.208;18.216;2022-11-15T14:25:07;0.77;;;0.57;;
12681;SDS011;6405;59.208;18.216;2022-11-15T14:27:44;4.90;;;1.20;;
12681;SDS011;6405;59.208;18.216;2022-11-15T14:30:29;2.83;;;0.90;;
12681;SDS011;6405;59.208;18.216;2022-11-15T14:32:56;2.37;;;0.77;;
12681;SDS011;6405;59.208;18.216;2022-11-15T14:35:23;2.17;;;0.90;;
12681;SDS011;6405;59.208;18.216;2022-11-15T14:37:49;1.87;;;0.80;;
12681;SDS011;6405;59.208;18.216;2022-11-15T14:40:20;0.73;;;0.60;;
12681;SDS011;6405;59.208;18.216;2022-11-15T14:42:48;2.03;;;0.80;;
12681;SDS011;6405;59.208;18.216;2022-11-15T14:45:17;2.37;;;0.60;;
12681;SDS011;6405;59.208;18.216;2022-11-15T14:47:44;1.87;;;1.00;;
12681;SDS011;6405;59.208;18.216;2022-11-15T14:50:13;2.33;;;0.90;;
12681;SDS011;6405;59.208;18.216;2022-11-15T14:52:44;5.77;;;1.50;;
12681;SDS011;6405;59.208;18.216;2022-11-15T14:55:19;2.33;;;0.80;;
12681;SDS011;6405;59.208;18.216;2022-11-15T14:57:50;2.53;;;1.20;;
12681;SDS011;6405;59.208;18.216;2022-11-15T15:00:18;2.73;;;0.93;;
12681;SDS011;6405;59.208;18.216;2022-11-15T15:02:44;1.93;;;0.97;;
12681;SDS011;6405;59.208;18.216;2022-11-15T15:07:46;3.03;;;0.90;;
12681;SDS011;6405;59.208;18.216;2022-11-15T15:10:15;1.37;;;0.80;;
12681;SDS011;6405;59.208;18.216;2022-11-15T15:12:44;3.37;;;1.27;;
12681;SDS011;6405;59.208;18.216;2022-11-15T15:15:19;2.30;;;0.77;;
12681;SDS011;6405;59.208;18.216;2022-11-15T15:17:49;1.17;;;0.90;;
12681;SDS011;6405;59.208;18.216;2022-11-15T15:20:17;1.73;;;1.00;;
12681;SDS011;6405;59.208;18.216;2022-11-15T15:22:44;1.80;;;1.20;;
12681;SDS011;6405;59.208;18.216;2022-11-15T15:25:19;6.17;;;1.40;;
12681;SDS011;6405;59.208;18.216;2022-11-15T15:27:48;4.10;;;1.07;;
12681;SDS011;6405;59.208;18.216;2022-11-15T15:30:15;1.47;;;0.90;;
12681;SDS011;6405;59.208;18.216;2022-11-15T15:32:42;1.13;;;1.00;;
12681;SDS011;6405;59.208;18.216;2022-11-15T15:35:10;2.53;;;1.27;;
12681;SDS011;6405;59.208;18.216;2022-11-15T15:37:37;5.00;;;1.40;;
12681;SDS011;6405;59.208;18.216;2022-11-15T15:40:08;1.17;;;0.90;;
12681;SDS011;6405;59.208;18.216;2022-11-15T15:42:44;2.03;;;1.10;;
12681;SDS011;6405;59.208;18.216;2022-11-15T15:45:11;2.03;;;1.17;;
12681;SDS011;6405;59.208;18.216;2022-11-15T15:47:37;3.80;;;0.90;;
12681;SDS011;6405;59.208;18.216;2022-11-15T15:50:48;3.67;;;1.23;;
12681;SDS011;6405;59.208;18.216;2022-11-15T15:53:00;0.93;;;0.80;;
12681;SDS011;6405;59.208;18.216;2022-11-15T15:55:28;0.83;;;0.80;;
12681;SDS011;6405;59.208;18.216;2022-11-15T15:57:54;1.13;;;0.70;;
12681;SDS011;6405;59.208;18.216;2022-11-15T16:00:20;1.00;;;0.90;;
12681;SDS011;6405;59.208;18.216;2022-11-15T16:02:48;0.93;;;0.80;;
12681;SDS011;6405;59.208;18.216;2022-11-15T16:05:14;1.13;;;0.60;;
12681;SDS011;6405;59.208;18.216;2022-11-15T16:07:40;1.47;;;0.87;;
12681;SDS011;6405;59.208;18.216;2022-11-15T16:10:19;2.40;;;0.70;;
12681;SDS011;6405;59.208;18.216;2022-11-15T16:12:49;1.27;;;0.87;;
12681;SDS011;6405;59.208;18.216;2022-11-15T16:15:16;1.57;;;0.70;;
12681;SDS011;6405;59.208;18.216;2022-11-15T16:17:58;2.00;;;0.60;;
12681;SDS011;6405;59.208;18.216;2022-11-15T16:23:11;1.20;;;0.67;;
12681;SDS011;6405;59.208;18.216;2022-11-15T16:25:47;1.90;;;0.77;;
12681;SDS011;6405;59.208;18.216;2022-11-15T16:30:46;1.73;;;0.73;;
12681;SDS011;6405;59.208;18.216;2022-11-15T16:33:13;0.57;;;0.50;;
12681;SDS011;6405;59.208;18.216;2022-11-15T16:35:41;1.30;;;0.70;;
12681;SDS011;6405;59.208;18.216;2022-11-15T16:38:10;1.23;;;0.60;;
12681;SDS011;6405;59.208;18.216;2022-11-15T16:40:39;1.23;;;0.60;;
12681;SDS011;6405;59.208;18.216;2022-11-15T16:43:05;1.00;;;0.50;;
12681;SDS011;6405;59.208;18.216;2022-11-15T16:45:33;0.93;;;0.70;;
12681;SDS011;6405;59.208;18.216;2022-11-15T16:48:00;0.70;;;0.60;;
12681;SDS011;6405;59.208;18.216;2022-11-15T16:50:27;1.93;;;0.80;;
12681;SDS011;6405;59.208;18.216;2022-11-15T16:52:55;1.40;;;0.60;;
12681;SDS011;6405;59.208;18.216;2022-11-15T16:55:24;1.70;;;0.73;;
12681;SDS011;6405;59.208;18.216;2022-11-15T16:57:53;1.53;;;0.50;;
12681;SDS011;6405;59.208;18.216;2022-11-15T17:00:20;2.80;;;0.70;;
12681;SDS011;6405;59.208;18.216;2022-11-15T17:02:48;1.00;;;0.60;;
12681;SDS011;6405;59.208;18.216;2022-11-15T17:05:18;0.60;;;0.60;;
12681;SDS011;6405;59.208;18.216;2022-11-15T17:07:45;3.03;;;1.00;;
12681;SDS011;6405;59.208;18.216;2022-11-15T17:10:15;2.17;;;0.80;;
12681;SDS011;6405;59.208;18.216;2022-11-15T17:12:43;1.73;;;0.90;;
12681;SDS011;6405;59.208;18.216;2022-11-15T17:15:10;1.53;;;0.70;;
12681;SDS011;6405;59.208;18.216;2022-11-15T17:17:36;3.00;;;1.00;;